Time;durP1;ratioP1;P1;durP2;ratioP2;P2;SDS_P1;SDS_P2;PMS_P1;PMS_P2;Temp;Humidity;BMP_temperature;BMP_pressure;BME280_temperature;BME280_humidity;BME280_pressure;Samples;Min_cycle;Max_cycle;Signal;HPM_P1;HPM_P2
2024/01/12 00:00:24;;;;;;;15.98;6.22;;;2.90;94.00;;;;;;5021818;28;20088;-78
2024/01/12 00:02:49;;;;;;;8.38;4.15;;;2.90;94.00;;;;;;5005495;28;20037;-78
2024/01/12 00:05:15;;;;;;;15.50;5.22;;;2.90;94.00;;;;;;5022056;28;20029;-79
2024/01/12 00:07:41;;;;;;;13.65;5.47;;;2.90;94.00;;;;;;5038011;28;20120;-79
2024/01/12 00:10:08;;;;;;;14.05;5.28;;;2.90;94.00;;;;;;5035292;28;20068;-79
2024/01/12 00:12:34;;;;;;;13.70;5.00;;;2.90;94.00;;;;;;5038163;28;20183;-79
2024/01/12 00:15:00;;;;;;;14.80;5.97;;;2.90;94.10;;;;;;5022016;28;20461;-78
2024/01/12 00:17:26;;;;;;;12.88;5.95;;;2.90;94.10;;;;;;5035598;28;20493;-79
2024/01/12 00:19:52;;;;;;;17.27;6.45;;;2.90;94.10;;;;;;5020676;28;20052;-78
2024/01/12 00:22:17;;;;;;;14.15;5.63;;;2.90;94.10;;;;;;5038109;28;20044;-79
2024/01/12 00:24:43;;;;;;;13.40;5.40;;;2.80;94.10;;;;;;5021547;28;20572;-79
2024/01/12 00:27:09;;;;;;;12.18;5.43;;;2.90;94.10;;;;;;5021422;28;20397;-79
2024/01/12 00:29:34;;;;;;;11.95;5.13;;;2.80;94.20;;;;;;5038066;28;20068;-78
2024/01/12 00:32:00;;;;;;;14.43;5.13;;;2.80;94.10;;;;;;5004875;28;20500;-79
2024/01/12 00:34:26;;;;;;;9.07;5.43;;;2.90;94.10;;;;;;5037618;28;20087;-79
2024/01/12 00:36:53;;;;;;;17.42;6.55;;;2.80;94.10;;;;;;5036672;28;20110;-79
2024/01/12 00:39:19;;;;;;;12.00;5.25;;;2.80;94.10;;;;;;5037915;28;20045;-78
2024/01/12 00:41:47;;;;;;;15.23;6.28;;;2.80;94.10;;;;;;5037516;28;20041;-78
2024/01/12 00:44:12;;;;;;;13.05;4.63;;;2.80;94.10;;;;;;5037492;28;20102;-78
2024/01/12 00:46:38;;;;;;;13.98;5.43;;;2.80;94.20;;;;;;5037679;28;20037;-78
2024/01/12 00:49:04;;;;;;;12.32;4.93;;;2.80;94.20;;;;;;5021031;28;20037;-78
2024/01/12 00:51:29;;;;;;;16.25;5.90;;;2.80;94.20;;;;;;5019808;28;20036;-78
2024/01/12 00:53:55;;;;;;;12.95;5.25;;;2.80;94.20;;;;;;5037224;28;20057;-78
2024/01/12 00:56:21;;;;;;;16.33;5.75;;;2.80;94.20;;;;;;5037331;28;20316;-78
2024/01/12 00:58:47;;;;;;;16.77;5.85;;;2.80;94.20;;;;;;5020785;28;20041;-79
2024/01/12 01:01:12;;;;;;;11.35;5.32;;;2.80;94.20;;;;;;5004186;28;20041;-78
2024/01/12 01:03:38;;;;;;;13.65;5.72;;;2.80;94.30;;;;;;5004419;28;20410;-79
2024/01/12 01:06:05;;;;;;;14.43;6.38;;;2.80;94.20;;;;;;5037319;28;20041;-78
2024/01/12 01:08:31;;;;;;;12.32;5.18;;;2.70;94.30;;;;;;5019769;28;20469;-79
2024/01/12 01:10:57;;;;;;;13.07;6.35;;;2.70;94.30;;;;;;5004240;28;20052;-78
2024/01/12 01:13:22;;;;;;;13.88;6.10;;;2.80;94.30;;;;;;5020422;28;20044;-79
2024/01/12 01:15:48;;;;;;;12.80;6.63;;;2.70;94.30;;;;;;4988012;28;20089;-78
2024/01/12 01:18:17;;;;;;;18.80;6.30;;;2.80;94.30;;;;;;5034489;28;20052;-79
2024/01/12 01:20:43;;;;;;;16.40;7.20;;;2.80;94.30;;;;;;5036098;28;20401;-79
2024/01/12 01:23:09;;;;;;;13.38;5.75;;;2.80;94.30;;;;;;5036724;28;20033;-79
2024/01/12 01:25:36;;;;;;;13.63;6.20;;;2.80;94.40;;;;;;5020571;28;20052;-79
2024/01/12 01:28:02;;;;;;;16.95;6.60;;;2.80;94.30;;;;;;5036879;28;20048;-79
2024/01/12 01:30:28;;;;;;;11.73;6.38;;;2.80;94.30;;;;;;5036655;28;20429;-79
2024/01/12 01:32:53;;;;;;;14.48;5.95;;;2.80;94.30;;;;;;5019903;28;20086;-79
2024/01/12 01:35:19;;;;;;;13.40;6.35;;;2.90;94.30;;;;;;5020080;28;20045;-79
2024/01/12 01:37:45;;;;;;;15.50;6.25;;;2.90;94.30;;;;;;5003020;28;20047;-79
2024/01/12 01:40:11;;;;;;;15.45;6.28;;;3.00;94.30;;;;;;5003872;28;20039;-79
2024/01/12 01:42:36;;;;;;;16.60;6.20;;;3.00;94.30;;;;;;5020231;28;20094;-79
2024/01/12 01:45:02;;;;;;;10.68;5.40;;;3.00;94.30;;;;;;5019723;28;20033;-79
2024/01/12 01:47:28;;;;;;;16.30;5.78;;;3.00;94.30;;;;;;5019756;28;20037;-79
2024/01/12 01:49:55;;;;;;;11.40;5.40;;;3.00;94.30;;;;;;5036509;28;20131;-79
2024/01/12 01:52:23;;;;;;;10.27;5.88;;;3.00;94.30;;;;;;5019900;28;20041;-79
2024/01/12 01:54:49;;;;;;;15.52;6.07;;;3.00;94.30;;;;;;5035080;28;20455;-79
2024/01/12 01:57:15;;;;;;;11.32;5.50;;;3.00;94.30;;;;;;5019672;28;20045;-79
2024/01/12 01:59:41;;;;;;;12.73;5.65;;;3.10;94.30;;;;;;5036106;28;20090;-79
2024/01/12 02:02:08;;;;;;;11.02;6.43;;;3.00;94.30;;;;;;5036480;28;20573;-79
2024/01/12 02:04:34;;;;;;;12.07;6.93;;;3.00;94.40;;;;;;5019816;28;20033;-78
2024/01/12 02:07:01;;;;;;;12.50;7.00;;;3.00;94.30;;;;;;5019697;28;20056;-79
2024/01/12 02:09:28;;;;;;;17.65;6.28;;;3.00;94.30;;;;;;5019718;28;20041;-79
2024/01/12 02:11:54;;;;;;;11.50;6.22;;;3.00;94.40;;;;;;5034228;28;20041;-79
2024/01/12 02:14:20;;;;;;;14.38;5.80;;;3.00;94.50;;;;;;5036107;28;20453;-79
2024/01/12 02:16:46;;;;;;;12.75;5.88;;;3.00;94.40;;;;;;5003049;28;20080;-79
2024/01/12 02:19:12;;;;;;;12.15;6.03;;;3.00;94.50;;;;;;5033274;28;20045;-79
2024/01/12 02:21:38;;;;;;;14.05;6.75;;;2.90;94.50;;;;;;5018236;28;20094;-78
2024/01/12 02:24:04;;;;;;;12.73;6.15;;;2.90;94.50;;;;;;5019406;28;20033;-79
2024/01/12 02:26:30;;;;;;;13.02;6.28;;;2.90;94.60;;;;;;5035638;28;20037;-79
2024/01/12 02:28:57;;;;;;;10.25;4.40;;;3.00;94.60;;;;;;5035840;28;20040;-79
2024/01/12 02:31:24;;;;;;;12.18;4.97;;;2.90;94.60;;;;;;5035515;28;20052;-79
2024/01/12 02:33:50;;;;;;;13.38;5.75;;;2.90;94.60;;;;;;5035449;28;20049;-79
2024/01/12 02:36:15;;;;;;;12.80;6.13;;;2.90;94.60;;;;;;5018982;28;20044;-79
2024/01/12 02:38:42;;;;;;;17.08;5.82;;;2.90;94.60;;;;;;5034284;28;20063;-79
2024/01/12 02:41:08;;;;;;;14.07;6.50;;;2.90;94.70;;;;;;5002398;28;20051;-79
2024/01/12 02:43:34;;;;;;;13.70;5.82;;;2.90;94.70;;;;;;5035556;28;20469;-79
2024/01/12 02:46:00;;;;;;;13.27;5.97;;;2.90;94.70;;;;;;5002528;28;20068;-79
2024/01/12 02:48:25;;;;;;;18.58;7.72;;;2.90;94.80;;;;;;5035292;28;20379;-79
2024/01/12 02:50:51;;;;;;;18.90;6.82;;;3.00;94.80;;;;;;5035251;28;20110;-79
2024/01/12 02:53:18;;;;;;;14.13;6.05;;;2.90;94.80;;;;;;5035002;28;20198;-79
2024/01/12 02:55:43;;;;;;;12.02;5.03;;;2.90;94.80;;;;;;5001274;28;20619;-79
2024/01/12 02:58:09;;;;;;;20.13;6.35;;;2.90;94.80;;;;;;5019049;28;20072;-79
2024/01/12 03:00:35;;;;;;;14.82;5.22;;;2.90;94.80;;;;;;5018701;28;20401;-79
2024/01/12 03:03:00;;;;;;;13.65;4.97;;;2.90;94.70;;;;;;5018576;28;20178;-79
2024/01/12 03:05:26;;;;;;;21.65;5.28;;;3.00;94.70;;;;;;5035123;28;20091;-81
2024/01/12 03:07:52;;;;;;;13.35;4.82;;;3.00;94.70;;;;;;5035084;28;20047;-78
2024/01/12 03:10:17;;;;;;;16.77;5.30;;;3.00;94.70;;;;;;5018870;28;20045;-79
2024/01/12 03:12:43;;;;;;;13.23;3.83;;;3.10;94.70;;;;;;5000875;28;20390;-79
2024/01/12 03:15:09;;;;;;;19.35;4.65;;;3.10;94.70;;;;;;5018562;28;20076;-79
2024/01/12 03:17:34;;;;;;;13.57;4.30;;;3.10;94.70;;;;;;5034811;28;20041;-79
2024/01/12 03:20:00;;;;;;;16.50;5.80;;;3.20;94.70;;;;;;5016794;28;20047;-79
2024/01/12 03:22:26;;;;;;;14.77;5.30;;;3.20;94.70;;;;;;5001432;28;20032;-79
2024/01/12 03:24:51;;;;;;;13.88;5.97;;;3.20;94.70;;;;;;5037309;28;20037;-80
2024/01/12 03:27:17;;;;;;;18.83;5.50;;;3.20;94.70;;;;;;4989988;28;20040;-79
2024/01/12 03:29:43;;;;;;;22.23;5.60;;;3.10;94.70;;;;;;5022458;28;20047;-79
2024/01/12 03:32:08;;;;;;;14.32;5.47;;;3.10;94.70;;;;;;5022360;28;20128;-79
2024/01/12 03:34:34;;;;;;;15.13;6.05;;;3.10;94.60;;;;;;5022439;28;20448;-79
2024/01/12 03:37:00;;;;;;;17.45;5.70;;;3.10;94.70;;;;;;5021657;28;20037;-80
2024/01/12 03:39:25;;;;;;;18.75;5.57;;;3.10;94.70;;;;;;5022431;28;20045;-79
2024/01/12 03:41:51;;;;;;;20.13;6.53;;;3.10;94.70;;;;;;5038637;28;20405;-79
2024/01/12 03:44:17;;;;;;;18.00;6.93;;;3.10;94.80;;;;;;5038820;28;20500;-79
2024/01/12 03:46:42;;;;;;;21.08;6.65;;;3.10;94.80;;;;;;5038633;28;20535;-80
2024/01/12 03:49:08;;;;;;;14.98;5.47;;;3.10;94.80;;;;;;5005878;28;20033;-78
2024/01/12 03:51:34;;;;;;;12.63;5.43;;;3.10;94.70;;;;;;5005689;28;20048;-79
2024/01/12 03:53:59;;;;;;;17.08;4.75;;;3.10;94.70;;;;;;5017500;28;20053;-79
2024/01/12 03:56:25;;;;;;;21.00;6.50;;;3.10;94.70;;;;;;5019015;28;20046;-79
2024/01/12 03:58:51;;;;;;;16.27;6.15;;;3.10;94.70;;;;;;5035143;28;20404;-79
2024/01/12 04:01:17;;;;;;;19.75;5.80;;;3.00;94.70;;;;;;5002155;28;20034;-79
2024/01/12 04:03:43;;;;;;;18.40;6.40;;;3.00;94.70;;;;;;5018496;28;20038;-78
2024/01/12 04:06:09;;;;;;;15.00;6.18;;;3.00;94.70;;;;;;5035025;28;20037;-79
2024/01/12 04:08:35;;;;;;;16.85;6.00;;;3.00;94.80;;;;;;5002438;28;20095;-80
2024/01/12 04:11:00;;;;;;;12.52;5.57;;;3.00;94.70;;;;;;5001244;28;20068;-79
2024/01/12 04:13:26;;;;;;;14.85;5.43;;;3.00;94.80;;;;;;5035062;28;20038;-79
2024/01/12 04:15:53;;;;;;;16.42;5.80;;;3.00;94.80;;;;;;5034830;28;20482;-79
2024/01/12 04:18:18;;;;;;;16.17;6.07;;;3.00;94.80;;;;;;5018234;28;20042;-79
2024/01/12 04:20:44;;;;;;;11.15;4.80;;;3.10;94.80;;;;;;5034828;28;20119;-79
2024/01/12 04:23:10;;;;;;;17.30;6.25;;;3.00;94.80;;;;;;5016336;28;20030;-79
2024/01/12 04:25:36;;;;;;;20.58;6.55;;;3.00;94.80;;;;;;5018083;28;20545;-79
2024/01/12 04:28:02;;;;;;;16.33;6.40;;;3.00;94.80;;;;;;5002069;28;20060;-80
2024/01/12 04:30:27;;;;;;;17.67;5.50;;;3.00;94.70;;;;;;5018005;28;20498;-79
2024/01/12 04:32:53;;;;;;;14.13;6.30;;;3.00;94.80;;;;;;5001579;28;20091;-79
2024/01/12 04:35:19;;;;;;;12.77;6.00;;;2.90;94.70;;;;;;5017428;28;20048;-79
2024/01/12 04:37:44;;;;;;;14.93;6.43;;;2.90;94.80;;;;;;5000948;28;20061;-79
2024/01/12 04:40:11;;;;;;;16.60;6.15;;;2.90;94.70;;;;;;5034244;28;20107;-79
2024/01/12 04:42:36;;;;;;;14.75;6.03;;;2.90;94.70;;;;;;5034549;28;20037;-80
2024/01/12 04:45:02;;;;;;;14.15;6.25;;;2.90;94.80;;;;;;5034174;28;20505;-79
2024/01/12 04:47:28;;;;;;;14.95;6.07;;;2.90;94.80;;;;;;4985204;28;20033;-78
2024/01/12 04:49:54;;;;;;;15.35;7.00;;;2.90;94.80;;;;;;5034157;28;20041;-79
2024/01/12 04:52:19;;;;;;;15.75;6.55;;;2.90;94.80;;;;;;5034041;28;20124;-79
2024/01/12 04:54:45;;;;;;;13.30;6.00;;;2.90;94.80;;;;;;4999155;28;20112;-79
2024/01/12 04:57:11;;;;;;;13.10;5.30;;;2.90;94.80;;;;;;4981921;28;20045;-79
2024/01/12 04:59:36;;;;;;;17.10;6.38;;;2.90;94.70;;;;;;4997935;28;20103;-79
2024/01/12 05:02:02;;;;;;;14.40;5.80;;;3.00;94.70;;;;;;4997749;28;20065;-79
2024/01/12 05:04:28;;;;;;;20.30;6.07;;;2.90;94.70;;;;;;4997717;28;20128;-79
2024/01/12 05:06:53;;;;;;;15.07;6.50;;;2.90;94.70;;;;;;5014243;28;20038;-80
2024/01/12 05:09:19;;;;;;;29.40;8.90;;;2.90;94.70;;;;;;4997962;28;20052;-79
2024/01/12 05:11:45;;;;;;;17.48;6.18;;;2.80;94.70;;;;;;5031587;28;20052;-78
2024/01/12 05:14:11;;;;;;;15.20;5.75;;;2.80;94.70;;;;;;5033681;28;20049;-79
2024/01/12 05:16:36;;;;;;;22.02;5.57;;;2.80;94.70;;;;;;5017317;28;20049;-79
2024/01/12 05:19:02;;;;;;;14.38;5.30;;;2.80;94.70;;;;;;5017127;28;20057;-79
2024/01/12 05:21:28;;;;;;;19.55;6.25;;;2.80;94.70;;;;;;5000773;28;20041;-79
2024/01/12 05:23:53;;;;;;;19.63;6.30;;;2.80;94.80;;;;;;5028282;28;20041;-79
2024/01/12 05:26:20;;;;;;;20.30;5.80;;;2.90;94.70;;;;;;5017207;28;20041;-79
2024/01/12 05:28:46;;;;;;;23.08;8.40;;;2.80;94.70;;;;;;5016944;28;20038;-79
2024/01/12 05:31:14;;;;;;;16.38;5.93;;;2.90;94.80;;;;;;5000514;28;20059;-80
2024/01/12 05:33:40;;;;;;;22.25;5.93;;;2.90;94.70;;;;;;5016842;28;20048;-80
2024/01/12 05:36:06;;;;;;;17.00;5.63;;;2.80;94.80;;;;;;5022611;28;20042;-78
2024/01/12 05:38:31;;;;;;;17.13;5.03;;;2.80;94.80;;;;;;5030100;28;20126;-79
2024/01/12 05:40:57;;;;;;;18.52;5.85;;;2.90;94.90;;;;;;4997091;28;20053;-79
2024/01/12 05:43:23;;;;;;;22.75;5.55;;;2.90;94.90;;;;;;4997211;28;20034;-79
2024/01/12 05:45:48;;;;;;;16.90;5.13;;;2.90;94.90;;;;;;5031779;28;20441;-80
2024/01/12 05:48:14;;;;;;;19.85;5.63;;;2.90;94.90;;;;;;5020835;28;20088;-79
2024/01/12 05:50:39;;;;;;;22.80;6.25;;;2.90;94.90;;;;;;4990743;28;20037;-80
2024/01/12 05:53:06;;;;;;;17.55;5.18;;;2.90;94.90;;;;;;5004609;28;20037;-79
2024/01/12 05:55:32;;;;;;;18.48;4.70;;;2.90;94.90;;;;;;5022368;28;20053;-79
2024/01/12 05:57:58;;;;;;;16.55;5.00;;;2.90;94.90;;;;;;5016080;28;20099;-79
2024/01/12 06:00:23;;;;;;;27.80;4.82;;;3.00;94.90;;;;;;5000035;28;20144;-80
2024/01/12 06:02:49;;;;;;;23.38;4.93;;;3.00;94.90;;;;;;5016569;28;20041;-79
2024/01/12 06:05:15;;;;;;;18.40;4.82;;;3.00;94.90;;;;;;5000022;28;20080;-80
2024/01/12 06:07:40;;;;;;;9.73;4.05;;;3.00;94.90;;;;;;5032684;28;20073;-78
2024/01/12 06:10:08;;;;;;;15.65;3.97;;;3.00;94.90;;;;;;5032721;28;20037;-79
2024/01/12 06:12:34;;;;;;;20.77;4.38;;;3.10;94.80;;;;;;5032775;28;20068;-79
2024/01/12 06:15:00;;;;;;;18.83;4.78;;;3.10;94.80;;;;;;5032494;28;20041;-80
2024/01/12 06:17:26;;;;;;;17.40;3.42;;;3.10;94.80;;;;;;5032602;28;20041;-80
2024/01/12 06:19:52;;;;;;;18.00;4.28;;;3.10;94.80;;;;;;5016346;28;20080;-80
2024/01/12 06:22:18;;;;;;;17.80;3.75;;;3.20;94.80;;;;;;4986580;28;20089;-79
2024/01/12 06:24:44;;;;;;;12.65;3.42;;;3.20;94.80;;;;;;4996547;28;20038;-79
2024/01/12 06:27:10;;;;;;;22.27;3.83;;;3.20;94.70;;;;;;4996643;28;20095;-80
2024/01/12 06:29:36;;;;;;;21.77;3.92;;;3.30;94.70;;;;;;4996260;28;20029;-78
2024/01/12 06:32:03;;;;;;;16.92;3.15;;;3.30;94.60;;;;;;4996404;28;20188;-79
2024/01/12 06:34:29;;;;;;;19.40;3.60;;;3.30;94.60;;;;;;5012552;28;20053;-79
2024/01/12 06:36:56;;;;;;;16.65;3.13;;;3.30;94.60;;;;;;4996397;28;20038;-79
2024/01/12 06:39:22;;;;;;;22.42;4.00;;;3.40;94.60;;;;;;4996300;28;20107;-80
2024/01/12 06:41:48;;;;;;;14.15;2.92;;;3.40;94.50;;;;;;5012289;28;20499;-79
2024/01/12 06:44:14;;;;;;;18.48;4.05;;;3.50;94.50;;;;;;5012382;28;20096;-78
2024/01/12 06:46:43;;;;;;;12.57;2.92;;;3.50;94.40;;;;;;4995907;28;20038;-80
2024/01/12 06:49:09;;;;;;;21.08;3.75;;;3.50;94.30;;;;;;4980145;28;20038;-79
2024/01/12 06:51:35;;;;;;;18.67;3.95;;;3.50;94.30;;;;;;5012213;28;20046;-79
2024/01/12 06:54:01;;;;;;;15.55;3.72;;;3.50;94.20;;;;;;5012043;28;20079;-79
2024/01/12 06:56:27;;;;;;;14.38;3.80;;;3.50;94.20;;;;;;4979767;28;20050;-80
2024/01/12 06:58:52;;;;;;;17.20;4.38;;;3.50;94.20;;;;;;4995945;28;20054;-80
2024/01/12 07:01:18;;;;;;;17.42;4.35;;;3.50;94.10;;;;;;5011991;28;20041;-80
2024/01/12 07:03:45;;;;;;;17.73;3.72;;;3.50;94.10;;;;;;5012146;28;20120;-81
2024/01/12 07:06:11;;;;;;;15.52;3.70;;;3.60;94.00;;;;;;4979940;28;20463;-82
2024/01/12 07:08:37;;;;;;;14.55;4.10;;;3.60;94.00;;;;;;5012028;28;20129;-79
2024/01/12 07:11:03;;;;;;;21.58;4.20;;;3.60;93.90;;;;;;4995536;28;20415;-79
2024/01/12 07:13:29;;;;;;;14.30;3.22;;;3.70;93.80;;;;;;4995852;28;20183;-80
2024/01/12 07:15:55;;;;;;;13.82;3.67;;;3.70;93.70;;;;;;5012090;28;20125;-78
2024/01/12 07:18:20;;;;;;;19.92;3.70;;;3.70;93.60;;;;;;4995600;28;20049;-80
2024/01/12 07:20:46;;;;;;;19.27;4.22;;;3.60;93.60;;;;;;5011780;28;20046;-80
2024/01/12 07:23:12;;;;;;;18.33;3.38;;;3.80;93.50;;;;;;5011842;28;20402;-79
2024/01/12 07:25:38;;;;;;;21.38;4.38;;;3.80;93.40;;;;;;5011761;28;20088;-79
2024/01/12 07:28:07;;;;;;;18.05;2.95;;;3.80;93.40;;;;;;4995757;28;20038;-79
2024/01/12 07:30:33;;;;;;;17.38;3.80;;;3.90;93.20;;;;;;4995807;28;20383;-79
2024/01/12 07:32:59;;;;;;;17.75;3.85;;;3.80;93.10;;;;;;5011856;28;20057;-80
2024/01/12 07:35:25;;;;;;;15.98;3.58;;;3.90;93.10;;;;;;5011731;28;20057;-79
2024/01/12 07:37:51;;;;;;;16.55;2.70;;;3.90;93.00;;;;;;5011775;28;20042;-79
2024/01/12 07:40:17;;;;;;;18.35;4.03;;;3.90;93.00;;;;;;5011624;28;20053;-79
2024/01/12 07:42:43;;;;;;;15.23;4.30;;;3.90;93.00;;;;;;4979221;28;20045;-79
2024/01/12 07:45:11;;;;;;;19.63;4.10;;;3.90;92.90;;;;;;4995678;28;20096;-79
2024/01/12 07:47:36;;;;;;;17.00;4.22;;;4.00;92.90;;;;;;5011476;28;20119;-80
2024/01/12 07:50:02;;;;;;;23.48;4.18;;;4.00;92.80;;;;;;5011330;28;20034;-80
2024/01/12 07:52:28;;;;;;;13.88;3.63;;;4.00;92.70;;;;;;5011249;28;20505;-79
2024/01/12 07:54:54;;;;;;;14.15;2.90;;;4.00;92.60;;;;;;4994880;28;20061;-78
2024/01/12 07:57:20;;;;;;;22.17;3.42;;;4.00;92.60;;;;;;5011701;28;20073;-78
2024/01/12 07:59:45;;;;;;;15.43;3.53;;;4.00;92.50;;;;;;4995461;28;20038;-81
2024/01/12 08:02:11;;;;;;;16.25;2.80;;;4.00;92.50;;;;;;5010937;28;20128;-80
2024/01/12 08:04:37;;;;;;;13.00;3.53;;;4.00;92.50;;;;;;5011552;28;20041;-80
2024/01/12 08:07:03;;;;;;;17.90;3.45;;;4.00;92.40;;;;;;4995534;28;20184;-81
2024/01/12 08:09:29;;;;;;;20.50;4.60;;;4.00;92.30;;;;;;4995501;28;20550;-79
2024/01/12 08:11:55;;;;;;;13.38;2.70;;;4.10;92.30;;;;;;4999049;28;20088;-80
2024/01/12 08:14:20;;;;;;;12.60;3.60;;;4.10;92.20;;;;;;4998956;28;20044;-80
2024/01/12 08:16:47;;;;;;;13.00;3.97;;;4.10;92.20;;;;;;4982625;28;20184;-80
2024/01/12 08:19:12;;;;;;;11.65;3.28;;;4.10;92.10;;;;;;4982662;28;20081;-78
2024/01/12 08:21:38;;;;;;;23.30;4.20;;;4.10;92.10;;;;;;5014779;28;20132;-80
2024/01/12 08:24:04;;;;;;;16.95;2.92;;;4.10;92.10;;;;;;4998548;28;20037;-79
2024/01/12 08:26:29;;;;;;;18.98;3.85;;;4.10;92.00;;;;;;5015121;28;20044;-79
2024/01/12 08:29:00;;;;;;;15.07;2.80;;;4.20;92.00;;;;;;5015089;28;20502;-80
2024/01/12 08:31:26;;;;;;;17.40;4.35;;;4.10;92.00;;;;;;5014700;28;20054;-80
2024/01/12 08:33:52;;;;;;;15.40;3.35;;;4.20;92.00;;;;;;5014692;28;20046;-79
2024/01/12 08:36:17;;;;;;;15.23;4.00;;;4.20;91.90;;;;;;4998617;28;20133;-80
2024/01/12 08:38:43;;;;;;;18.42;3.28;;;4.20;91.90;;;;;;4998334;28;20474;-79
2024/01/12 08:41:09;;;;;;;15.68;2.83;;;4.30;91.80;;;;;;4982039;28;20339;-80
2024/01/12 08:43:34;;;;;;;17.33;4.18;;;4.20;91.80;;;;;;4966332;28;20129;-81
2024/01/12 08:46:00;;;;;;;18.08;3.92;;;4.20;91.80;;;;;;4998527;28;20430;-81
2024/01/12 08:48:26;;;;;;;12.75;3.38;;;4.20;91.80;;;;;;4998521;28;20038;-79
2024/01/12 08:50:51;;;;;;;14.63;3.95;;;4.20;91.90;;;;;;4981921;28;20474;-80
2024/01/12 08:53:17;;;;;;;14.32;3.30;;;4.20;91.90;;;;;;4998009;28;20046;-80
2024/01/12 08:55:43;;;;;;;20.45;3.55;;;4.20;91.90;;;;;;5014296;28;20061;-79
2024/01/12 08:58:10;;;;;;;14.60;3.92;;;4.20;91.90;;;;;;4982058;28;20086;-80
2024/01/12 09:00:35;;;;;;;14.02;3.92;;;4.20;91.90;;;;;;4998152;28;20046;-80
2024/01/12 09:03:02;;;;;;;17.40;3.15;;;4.20;91.90;;;;;;4997748;28;20046;-80
2024/01/12 09:05:28;;;;;;;20.40;3.22;;;4.30;92.00;;;;;;5032213;28;20489;-80
2024/01/12 09:07:54;;;;;;;22.30;5.30;;;4.20;92.00;;;;;;5034187;28;20045;-80
2024/01/12 09:10:19;;;;;;;13.50;3.72;;;4.30;92.00;;;;;;5017476;28;20500;-81
2024/01/12 09:12:45;;;;;;;17.85;3.28;;;4.20;92.00;;;;;;4985144;28;20393;-80
2024/01/12 09:15:11;;;;;;;13.55;3.80;;;4.30;92.10;;;;;;5001090;28;20037;-80
2024/01/12 09:17:36;;;;;;;16.70;3.40;;;4.20;92.10;;;;;;5034026;28;20443;-80
2024/01/12 09:20:02;;;;;;;19.33;3.20;;;4.20;92.10;;;;;;5033929;28;20048;-79
2024/01/12 09:22:29;;;;;;;12.73;2.83;;;4.20;92.20;;;;;;5017029;28;20049;-80
2024/01/12 09:24:55;;;;;;;16.50;3.28;;;4.30;92.20;;;;;;5017437;28;20409;-80
2024/01/12 09:27:21;;;;;;;19.40;4.15;;;4.30;92.30;;;;;;5017430;28;20044;-80
2024/01/12 09:29:47;;;;;;;11.93;3.42;;;4.30;92.30;;;;;;5017520;28;20049;-79
2024/01/12 09:32:12;;;;;;;18.38;4.05;;;4.30;92.40;;;;;;5016881;28;20597;-79
2024/01/12 09:34:38;;;;;;;15.43;3.22;;;4.30;92.40;;;;;;5000680;28;20045;-79
2024/01/12 09:37:05;;;;;;;16.38;2.88;;;4.30;92.50;;;;;;5016942;28;20044;-79
2024/01/12 09:39:31;;;;;;;16.35;2.65;;;4.30;92.50;;;;;;5001023;28;20374;-80
2024/01/12 09:42:00;;;;;;;12.30;3.40;;;4.40;92.50;;;;;;5000458;28;20044;-80
2024/01/12 09:44:27;;;;;;;27.73;4.65;;;4.40;92.50;;;;;;5017125;28;20459;-80
2024/01/12 09:46:57;;;;;;;18.73;3.70;;;4.40;92.50;;;;;;5016947;28;20393;-79
2024/01/12 09:49:28;;;;;;;18.83;3.55;;;4.40;92.50;;;;;;5016718;28;20073;-80
2024/01/12 09:51:54;;;;;;;19.10;3.17;;;4.40;92.50;;;;;;5016879;28;20095;-80
2024/01/12 09:54:20;;;;;;;21.27;3.80;;;4.40;92.60;;;;;;5032967;28;20059;-80
2024/01/12 09:56:47;;;;;;;14.85;2.95;;;4.40;92.60;;;;;;5033345;28;20042;-80
2024/01/12 09:59:12;;;;;;;15.25;3.03;;;4.50;92.70;;;;;;5016802;28;20515;-80
2024/01/12 10:01:42;;;;;;;16.13;3.60;;;4.50;92.70;;;;;;5032769;28;20125;-81
2024/01/12 10:04:08;;;;;;;23.13;3.58;;;4.60;92.60;;;;;;5016577;28;20046;-80
2024/01/12 10:06:35;;;;;;;16.83;3.20;;;4.60;92.70;;;;;;5033064;28;20041;-80
2024/01/12 10:09:01;;;;;;;14.50;3.08;;;4.60;92.60;;;;;;5000306;28;20037;-79
2024/01/12 10:11:27;;;;;;;18.67;3.50;;;4.50;92.70;;;;;;5005932;28;20180;-80
2024/01/12 10:13:53;;;;;;;17.77;4.25;;;4.50;92.80;;;;;;5012919;28;20057;-78
2024/01/12 10:16:20;;;;;;;10.75;2.70;;;4.50;92.90;;;;;;4980610;28;20034;-78
2024/01/12 10:18:46;;;;;;;16.65;3.65;;;4.50;93.00;;;;;;5012850;28;20049;-78
2024/01/12 10:21:14;;;;;;;19.73;3.42;;;4.50;93.00;;;;;;4980372;28;20042;-78
2024/01/12 10:23:43;;;;;;;18.30;4.05;;;4.50;93.10;;;;;;4980673;28;20080;-78
2024/01/12 10:26:15;;;;;;;20.02;3.67;;;4.50;93.10;;;;;;4980554;28;20065;-78
2024/01/12 10:28:42;;;;;;;17.48;3.17;;;4.50;93.20;;;;;;4981269;28;20124;-79
2024/01/12 10:31:10;;;;;;;14.52;3.08;;;4.50;93.30;;;;;;5013769;28;20045;-78
2024/01/12 10:33:36;;;;;;;17.42;4.38;;;4.50;93.30;;;;;;5014384;28;20081;-78
2024/01/12 10:36:23;;;;;;;23.35;4.97;;;4.60;93.40;;;;;;4997146;28;20045;-78
2024/01/12 10:38:50;;;;;;;15.15;5.28;;;4.60;93.30;;;;;;5012549;28;20128;-78
2024/01/12 10:41:19;;;;;;;16.25;4.05;;;4.60;93.30;;;;;;4996154;28;20038;-78
2024/01/12 10:43:51;;;;;;;12.77;3.28;;;4.60;93.20;;;;;;4995986;28;20096;-79
2024/01/12 10:46:43;;;;;;;15.65;3.17;;;4.70;93.20;;;;;;5012760;28;20038;-78
2024/01/12 10:49:12;;;;;;;14.20;2.50;;;4.70;93.10;;;;;;4998657;28;20465;-79
2024/01/12 10:51:43;;;;;;;16.33;2.83;;;4.80;93.00;;;;;;4996470;28;20052;-79
2024/01/12 10:54:13;;;;;;;14.35;3.22;;;4.80;92.90;;;;;;4995682;28;20054;-80
2024/01/12 10:56:41;;;;;;;13.25;3.25;;;4.80;92.70;;;;;;4995845;28;20128;-78
2024/01/12 10:59:07;;;;;;;17.95;3.30;;;4.80;92.60;;;;;;4995853;28;20111;-79
2024/01/12 11:01:34;;;;;;;15.43;2.55;;;4.80;92.60;;;;;;4995602;28;20416;-79
2024/01/12 11:04:02;;;;;;;15.35;3.00;;;4.80;92.60;;;;;;5012556;28;20049;-80
2024/01/12 11:06:29;;;;;;;18.23;2.85;;;4.80;92.50;;;;;;4996666;28;20106;-78
2024/01/12 11:08:56;;;;;;;16.90;3.10;;;4.80;92.50;;;;;;5012486;28;20127;-78
2024/01/12 11:11:26;;;;;;;14.70;3.30;;;4.90;92.60;;;;;;5012786;28;20041;-79
2024/01/12 11:13:53;;;;;;;21.00;3.03;;;4.90;92.50;;;;;;4996512;28;20108;-81
2024/01/12 11:16:21;;;;;;;20.17;3.70;;;4.90;92.60;;;;;;4996435;28;20052;-80
2024/01/12 11:18:47;;;;;;;15.90;3.10;;;4.90;92.60;;;;;;4980029;28;20129;-81
2024/01/12 11:21:21;;;;;;;11.65;3.67;;;5.00;92.60;;;;;;4979103;28;20084;-80
2024/01/12 11:23:47;;;;;;;10.48;3.17;;;5.00;92.70;;;;;;5010235;28;20251;-79
2024/01/12 11:26:13;;;;;;;13.82;2.65;;;5.00;92.70;;;;;;4978014;28;20133;-78
2024/01/12 11:28:39;;;;;;;16.90;2.67;;;5.00;92.60;;;;;;4977521;28;20121;-79
2024/01/12 11:31:05;;;;;;;14.52;2.72;;;5.00;92.50;;;;;;4993769;28;20133;-79
2024/01/12 11:33:43;;;;;;;12.40;3.17;;;5.10;92.50;;;;;;4993750;28;20045;-81
2024/01/12 11:36:17;;;;;;;15.60;4.28;;;5.10;92.50;;;;;;5010533;28;20046;-80
2024/01/12 11:38:43;;;;;;;14.23;2.38;;;5.10;92.30;;;;;;4995884;28;20060;-81
2024/01/12 11:41:13;;;;;;;13.77;3.78;;;5.20;92.10;;;;;;4995499;28;20042;-79
2024/01/12 11:43:39;;;;;;;12.95;2.92;;;5.20;92.00;;;;;;4995531;28;20038;-79
2024/01/12 11:46:05;;;;;;;13.77;2.75;;;5.30;91.90;;;;;;4998055;28;20048;-79
2024/01/12 11:48:31;;;;;;;15.57;2.33;;;5.20;91.90;;;;;;4999305;28;20034;-81
2024/01/12 11:50:58;;;;;;;23.00;4.68;;;5.30;91.90;;;;;;4999465;28;20042;-78
2024/01/12 11:53:23;;;;;;;20.63;3.25;;;5.30;92.10;;;;;;5015978;28;20084;-81
2024/01/12 11:55:49;;;;;;;18.63;3.25;;;5.30;92.10;;;;;;5002564;28;20478;-80
2024/01/12 11:58:15;;;;;;;16.83;4.00;;;5.30;92.10;;;;;;5002440;28;20046;-80
2024/01/12 12:00:41;;;;;;;14.30;3.33;;;5.30;92.10;;;;;;5018712;28;20045;-82
2024/01/12 12:03:11;;;;;;;11.27;3.10;;;5.20;92.20;;;;;;5002573;28;20413;-79
2024/01/12 12:05:36;;;;;;;11.77;2.63;;;5.20;92.30;;;;;;5018646;28;20045;-81
2024/01/12 12:08:03;;;;;;;14.52;3.17;;;5.10;92.40;;;;;;5018565;28;20091;-79
2024/01/12 12:10:29;;;;;;;15.00;3.08;;;5.10;92.50;;;;;;5002238;28;20046;-80
2024/01/12 12:12:55;;;;;;;18.20;2.95;;;5.10;92.60;;;;;;4986018;28;20052;-82
2024/01/12 12:15:21;;;;;;;15.25;3.42;;;5.10;92.60;;;;;;5002143;28;20048;-80
2024/01/12 12:17:48;;;;;;;14.73;3.30;;;5.10;92.70;;;;;;4985863;28;20124;-82
2024/01/12 12:20:15;;;;;;;10.38;2.50;;;5.10;92.70;;;;;;5018208;28;20049;-80
2024/01/12 12:22:42;;;;;;;16.77;2.97;;;5.10;92.90;;;;;;4986057;28;20489;-81
2024/01/12 12:25:11;;;;;;;14.32;2.72;;;5.00;92.90;;;;;;5001978;28;20041;-83
2024/01/12 12:27:41;;;;;;;19.27;3.78;;;5.10;92.90;;;;;;4986139;28;20033;-82
2024/01/12 12:30:08;;;;;;;17.10;3.42;;;5.10;92.90;;;;;;4985707;28;20048;-81
2024/01/12 12:32:34;;;;;;;17.50;3.15;;;5.10;92.90;;;;;;5018437;28;20386;-82
2024/01/12 12:35:10;;;;;;;13.25;2.88;;;5.10;92.90;;;;;;5001775;28;20033;-82
2024/01/12 12:37:36;;;;;;;12.43;2.67;;;5.10;92.90;;;;;;5003264;28;20037;-80
2024/01/12 12:40:03;;;;;;;18.05;3.88;;;5.10;92.90;;;;;;5001824;28;20119;-81
2024/01/12 12:42:29;;;;;;;12.77;2.88;;;5.10;92.90;;;;;;4985503;28;20049;-81